createdAt,value
2019-05-18T00:01:39.662Z,87.71
2019-05-18T00:04:11.691Z,88.13
2019-05-18T00:06:43.883Z,88.48
2019-05-18T00:09:15.936Z,88.54
2019-05-18T00:11:50.063Z,88.66
2019-05-18T00:14:22.134Z,88.61
2019-05-18T00:16:54.163Z,89.38
2019-05-18T00:19:26.638Z,88.84
2019-05-18T00:21:58.687Z,88.79
2019-05-18T00:24:32.866Z,88.67
2019-05-18T00:27:04.971Z,88.79
2019-05-18T00:29:39.841Z,88.32
2019-05-18T00:32:12.018Z,87.64
2019-05-18T00:34:44.103Z,87.27
2019-05-18T00:37:17.841Z,87.09
2019-05-18T00:39:50.429Z,86.98
2019-05-18T00:42:22.551Z,86.92
2019-05-18T00:44:54.632Z,86.93
2019-05-18T00:47:40.364Z,86.74
2019-05-18T00:50:01.360Z,86.11
2019-05-18T00:52:35.338Z,86.32
2019-05-18T00:55:07.809Z,86.09
2019-05-18T00:57:39.851Z,85.86
2019-05-18T01:00:12.794Z,85.87
2019-05-18T01:02:44.800Z,85.94
2019-05-18T01:05:16.947Z,86.12
2019-05-18T01:07:48.955Z,86.38
2019-05-18T01:10:21.331Z,86.47
2019-05-18T01:12:53.508Z,86.76
2019-05-18T01:15:25.781Z,87.10
2019-05-18T01:18:02.304Z,88.45
2019-05-18T01:20:34.059Z,89.25
2019-05-18T01:23:06.210Z,90.05
2019-05-18T01:25:38.240Z,90.95
2019-05-18T01:28:12.161Z,91.33
2019-05-18T01:30:46.319Z,91.25
2019-05-18T01:33:18.384Z,91.30
2019-05-18T01:35:50.450Z,91.19
2019-05-18T01:38:23.700Z,90.99
2019-05-18T01:40:55.681Z,91.54
2019-05-18T01:43:27.650Z,91.72
2019-05-18T01:45:59.654Z,92.04
2019-05-18T01:48:31.641Z,92.74
2019-05-18T01:51:04.010Z,92.64
2019-05-18T01:53:36.048Z,93.06
2019-05-18T01:56:09.815Z,93.33
2019-05-18T01:58:41.960Z,93.95
2019-05-18T02:01:14.081Z,93.71
2019-05-18T02:03:46.144Z,93.37
2019-05-18T02:06:18.243Z,93.79
2019-05-18T02:08:50.271Z,94.19
2019-05-18T02:11:22.380Z,94.82
2019-05-18T02:13:54.404Z,95.55
2019-05-18T02:16:26.484Z,97.01
2019-05-18T02:19:00.106Z,97.69
2019-05-18T02:21:32.126Z,98.18
2019-05-18T02:24:04.450Z,98.32
2019-05-18T02:26:36.627Z,98.35
2019-05-18T02:29:08.742Z,98.61
2019-05-18T02:31:42.521Z,99.82
2019-05-18T02:34:15.766Z,100.00
2019-05-18T02:36:47.942Z,100.00
2019-05-18T02:39:19.941Z,100.00
2019-05-18T02:41:53.640Z,100.00
2019-05-18T02:44:25.712Z,100.00
2019-05-18T02:46:59.418Z,100.00
2019-05-18T02:49:31.372Z,100.00
2019-05-18T02:52:03.455Z,100.00
2019-05-18T02:54:35.473Z,100.00
2019-05-18T02:57:10.039Z,100.00
2019-05-18T02:59:42.110Z,100.00
2019-05-18T03:02:14.525Z,100.00
2019-05-18T03:04:46.638Z,100.00
2019-05-18T03:07:18.760Z,100.00
2019-05-18T03:09:51.008Z,100.00
2019-05-18T03:12:25.824Z,100.00
2019-05-18T03:14:58.272Z,100.00
2019-05-18T03:17:30.432Z,100.00
2019-05-18T03:20:02.437Z,100.00
2019-05-18T03:22:34.379Z,100.00
2019-05-18T03:25:08.758Z,100.00
2019-05-18T03:27:40.850Z,100.00
2019-05-18T03:30:13.361Z,100.00
2019-05-18T03:32:47.113Z,100.00
2019-05-18T03:35:21.570Z,100.00
2019-05-18T03:37:56.176Z,100.00
2019-05-18T03:40:31.531Z,100.00
2019-05-18T03:43:08.866Z,100.00
2019-05-18T03:45:42.664Z,100.00
2019-05-18T03:48:14.635Z,100.00
2019-05-18T03:50:46.698Z,100.00
2019-05-18T03:53:20.963Z,100.00
2019-05-18T03:55:52.902Z,100.00
2019-05-18T03:58:24.994Z,100.00
2019-05-18T04:00:57.483Z,100.00
2019-05-18T04:03:32.606Z,100.00
2019-05-18T04:06:04.712Z,100.00
2019-05-18T04:08:38.610Z,100.00
2019-05-18T04:11:10.641Z,100.00
2019-05-18T04:13:42.961Z,100.00
2019-05-18T04:16:15.009Z,100.00
2019-05-18T04:18:47.105Z,100.00
2019-05-18T04:21:20.808Z,100.00
2019-05-18T04:23:52.811Z,100.00
2019-05-18T04:26:25.244Z,100.00
2019-05-18T04:28:57.263Z,100.00
2019-05-18T04:31:32.120Z,100.00
2019-05-18T04:34:03.080Z,100.00
2019-05-18T04:36:36.755Z,100.00
2019-05-18T04:39:08.782Z,100.00
2019-05-18T04:41:40.766Z,100.00
2019-05-18T04:44:12.742Z,100.00
2019-05-18T04:46:44.834Z,100.00
2019-05-18T04:49:16.855Z,100.00
2019-05-18T04:51:49.032Z,100.00
2019-05-18T04:54:21.137Z,100.00
2019-05-18T04:56:54.999Z,100.00
2019-05-18T04:59:27.423Z,100.00
2019-05-18T05:01:59.442Z,100.00
2019-05-18T05:04:31.445Z,100.00
2019-05-18T05:07:03.409Z,100.00
2019-05-18T05:09:36.861Z,100.00
2019-05-18T05:12:10.804Z,100.00
2019-05-18T05:14:43.699Z,100.00
2019-05-18T05:17:15.726Z,100.00
2019-05-18T05:19:47.719Z,100.00
2019-05-18T05:22:19.770Z,100.00
2019-05-18T05:24:51.724Z,100.00
2019-05-18T05:27:25.150Z,100.00
2019-05-18T05:29:57.176Z,100.00
2019-05-18T05:32:30.450Z,100.00
2019-05-18T05:35:02.698Z,100.00
2019-05-18T05:37:34.705Z,100.00
2019-05-18T05:40:07.366Z,100.00
2019-05-18T05:42:40.944Z,100.00
2019-05-18T05:45:13.294Z,100.00
2019-05-18T05:47:45.235Z,100.00
2019-05-18T05:50:17.792Z,100.00
2019-05-18T05:52:49.765Z,100.00
2019-05-18T05:55:21.904Z,100.00
2019-05-18T05:57:55.839Z,100.00
2019-05-18T06:00:28.237Z,99.48
2019-05-18T06:03:00.237Z,98.23
2019-05-18T06:05:32.263Z,96.47
2019-05-18T06:08:05.336Z,94.52
2019-05-18T06:10:37.432Z,86.98
2019-05-18T06:13:09.431Z,75.77
2019-05-18T06:15:41.365Z,64.13
2019-05-18T06:18:13.301Z,55.51
2019-05-18T06:20:51.476Z,49.46
2019-05-18T06:23:19.146Z,45.06
2019-05-18T06:25:53.389Z,42.12
2019-05-18T06:28:26.329Z,40.51
2019-05-18T06:30:58.347Z,38.79
2019-05-18T06:33:30.333Z,36.62
2019-05-18T06:36:03.625Z,35.68
2019-05-18T06:38:35.650Z,33.54
2019-05-18T06:41:07.634Z,32.06
2019-05-18T06:43:39.674Z,31.15
2019-05-18T06:46:12.953Z,29.40
2019-05-18T06:48:44.957Z,28.80
2019-05-18T06:51:16.968Z,27.60
2019-05-18T06:53:51.429Z,27.28
2019-05-18T06:56:23.820Z,26.57
2019-05-18T06:58:57.405Z,25.64
2019-05-18T07:01:29.448Z,25.24
2019-05-18T07:04:06.246Z,24.96
2019-05-18T07:06:38.247Z,24.46
2019-05-18T07:09:14.139Z,23.72
2019-05-18T07:11:45.363Z,23.08
2019-05-18T07:14:25.624Z,22.46
2019-05-18T07:16:52.877Z,22.46
2019-05-18T07:19:24.937Z,21.51
2019-05-18T07:21:56.931Z,21.51
2019-05-18T07:24:30.016Z,20.89
2019-05-18T07:27:02.153Z,19.88
2019-05-18T07:29:34.289Z,20.54
2019-05-18T07:32:08.299Z,20.97
2019-05-18T07:34:40.337Z,19.61
2019-05-18T07:37:12.438Z,19.36
2019-05-18T07:39:44.403Z,19.93
2019-05-18T07:42:16.389Z,21.09
2019-05-18T07:44:48.388Z,23.04
2019-05-18T07:47:20.418Z,25.71
2019-05-18T07:49:52.440Z,28.88
2019-05-18T07:52:24.422Z,30.88
2019-05-18T07:54:58.057Z,34.26
2019-05-18T07:57:31.727Z,37.84
2019-05-18T08:00:05.935Z,38.89
2019-05-18T08:02:38.003Z,40.00
2019-05-18T08:05:12.405Z,40.91
2019-05-18T08:07:44.504Z,41.40
2019-05-18T08:10:21.423Z,41.05
2019-05-18T08:12:55.110Z,39.02
2019-05-18T08:15:27.168Z,38.49
2019-05-18T08:17:59.844Z,38.84
2019-05-18T08:20:35.190Z,38.11
2019-05-18T08:23:06.959Z,38.43
2019-05-18T08:25:38.997Z,39.22
2019-05-18T08:28:11.542Z,38.43
2019-05-18T08:30:45.114Z,38.29
2019-05-18T08:33:17.219Z,36.06
2019-05-18T08:35:49.586Z,35.61
2019-05-18T08:38:21.616Z,31.58
2019-05-18T08:40:53.763Z,27.63
2019-05-18T08:43:25.864Z,23.77
2019-05-18T08:45:57.995Z,20.40
2019-05-18T08:48:30.244Z,19.76
2019-05-18T08:51:02.407Z,21.16
2019-05-18T08:53:45.739Z,22.55
2019-05-18T08:56:41.766Z,22.55
2019-05-18T08:59:13.850Z,19.54
2019-05-18T09:01:49.121Z,19.34
2019-05-18T09:04:30.696Z,20.94
2019-05-18T09:07:02.739Z,24.34
2019-05-18T09:09:34.911Z,27.41
2019-05-18T09:12:06.545Z,30.96
2019-05-18T09:14:38.394Z,33.15
2019-05-18T09:17:09.821Z,36.62
2019-05-18T09:19:42.452Z,38.06
2019-05-18T09:22:25.861Z,38.77
2019-05-18T09:24:59.555Z,39.55
2019-05-18T09:27:33.085Z,39.21
2019-05-18T09:30:07.555Z,40.48
2019-05-18T09:32:39.896Z,36.71
2019-05-18T09:40:40.525Z,35.74
2019-05-18T09:43:14.203Z,37.25
2019-05-18T09:45:47.971Z,30.58
2019-05-18T09:48:23.844Z,28.07
2019-05-18T09:50:56.475Z,29.63
2019-05-18T09:53:30.176Z,26.85
2019-05-18T09:56:03.603Z,25.33
2019-05-18T09:58:35.640Z,24.93
2019-05-18T10:01:07.880Z,24.44
2019-05-18T10:03:39.927Z,22.87
2019-05-18T10:06:13.027Z,23.24
2019-05-18T10:08:45.191Z,24.14
2019-05-18T10:11:17.728Z,23.62
2019-05-18T10:13:49.857Z,23.00
2019-05-18T10:16:21.955Z,24.84
2019-05-18T10:18:54.092Z,28.04
2019-05-18T10:21:26.242Z,30.98
2019-05-18T10:23:58.320Z,32.13
2019-05-18T10:26:33.461Z,35.50
2019-05-18T10:29:05.868Z,36.64
2019-05-18T10:31:38.605Z,36.29
2019-05-18T10:34:10.854Z,35.52
2019-05-18T10:36:42.911Z,30.88
2019-05-18T10:39:15.358Z,29.17
2019-05-18T10:41:52.038Z,29.94
2019-05-18T10:44:24.178Z,28.97
2019-05-18T10:46:56.178Z,27.22
2019-05-18T10:49:28.294Z,27.61
2019-05-18T10:52:01.861Z,28.14
2019-05-18T10:54:33.837Z,28.94
2019-05-18T10:57:06.096Z,30.22
2019-05-18T10:59:38.179Z,30.47
2019-05-18T11:02:11.048Z,28.84
2019-05-18T11:04:43.326Z,26.40
2019-05-18T11:07:15.421Z,25.16
2019-05-18T11:09:47.725Z,23.16
2019-05-18T11:12:19.733Z,24.72
2019-05-18T11:14:51.823Z,27.12
2019-05-18T11:17:25.769Z,28.66
2019-05-18T11:19:57.791Z,28.94
2019-05-18T11:22:29.849Z,26.66
2019-05-18T11:25:01.818Z,27.79
2019-05-18T11:27:34.201Z,29.12
2019-05-18T11:30:07.302Z,30.08
2019-05-18T11:32:39.562Z,29.12
2019-05-18T11:35:12.383Z,28.06
2019-05-18T11:37:44.489Z,28.30
2019-05-18T11:40:17.251Z,27.64
2019-05-18T11:42:50.621Z,27.66
2019-05-18T11:45:24.833Z,27.84
2019-05-18T11:47:57.107Z,29.03
2019-05-18T11:50:29.520Z,30.19
2019-05-18T11:53:03.456Z,31.22
2019-05-18T11:55:38.585Z,32.72
2019-05-18T11:58:13.822Z,35.66
2019-05-18T12:00:47.542Z,36.59
2019-05-18T12:03:19.561Z,36.36
2019-05-18T12:05:59.206Z,36.45
2019-05-18T12:11:05.527Z,36.37
2019-05-18T12:13:39.391Z,36.62
2019-05-18T12:16:12.902Z,36.28
2019-05-18T12:18:47.559Z,35.99
2019-05-18T12:21:22.658Z,33.03
2019-05-18T12:23:54.785Z,31.08
2019-05-18T12:26:26.863Z,31.98
2019-05-18T12:29:00.834Z,31.45
2019-05-18T12:31:34.731Z,33.57
2019-05-18T12:34:06.753Z,35.15
2019-05-18T12:36:38.861Z,37.40
2019-05-18T12:39:16.932Z,37.99
2019-05-18T12:41:48.971Z,38.89
2019-05-18T12:44:21.437Z,38.60
2019-05-18T12:46:53.421Z,38.19
2019-05-18T12:49:25.539Z,38.35
2019-05-18T12:51:58.117Z,38.79
2019-05-18T12:54:45.600Z,40.11
2019-05-18T12:57:05.877Z,41.48
2019-05-18T12:59:41.966Z,42.46
2019-05-18T13:02:15.559Z,43.07
2019-05-18T13:04:47.524Z,43.33
2019-05-18T13:07:19.694Z,42.85
2019-05-18T13:09:51.760Z,42.58
2019-05-18T13:12:23.971Z,41.82
2019-05-18T13:14:55.984Z,41.73
2019-05-18T13:17:31.150Z,42.42
2019-05-18T13:20:03.298Z,40.84
2019-05-18T13:22:35.388Z,39.98
2019-05-18T13:25:12.429Z,38.37
2019-05-18T13:27:44.509Z,37.92
2019-05-18T13:30:19.887Z,38.34
2019-05-18T13:32:50.753Z,38.64
2019-05-18T13:35:24.653Z,37.39
2019-05-18T13:37:57.301Z,35.99
2019-05-18T13:40:29.216Z,36.44
2019-05-18T13:43:08.463Z,36.96
2019-05-18T13:45:41.065Z,36.90
2019-05-18T13:48:15.279Z,37.70
2019-05-18T13:50:48.229Z,36.48
2019-05-18T13:53:20.160Z,36.83
2019-05-18T13:55:52.615Z,37.51
2019-05-18T13:58:24.851Z,38.83
2019-05-18T14:00:56.912Z,39.23
2019-05-18T14:03:28.847Z,39.53
2019-05-18T14:06:00.829Z,40.13
2019-05-18T14:08:33.036Z,40.20
2019-05-18T14:11:06.497Z,40.42
2019-05-18T14:13:40.244Z,40.18
2019-05-18T14:16:14.430Z,39.07
2019-05-18T14:18:46.516Z,39.26
2019-05-18T14:21:20.272Z,38.14
2019-05-18T14:23:52.358Z,37.76
2019-05-18T14:26:24.324Z,37.17
2019-05-18T14:28:56.339Z,37.01
2019-05-18T14:31:28.327Z,37.01
2019-05-18T14:34:00.767Z,37.23
2019-05-18T14:36:34.679Z,37.26
2019-05-18T14:39:11.992Z,37.59
2019-05-18T14:41:44.414Z,37.79
2019-05-18T14:44:16.559Z,36.59
2019-05-18T14:47:06.348Z,38.51
2019-05-18T14:49:38.398Z,38.07
2019-05-18T14:52:12.160Z,37.46
2019-05-18T14:54:45.400Z,38.46
2019-05-18T14:57:17.439Z,38.17
2019-05-18T14:59:49.448Z,38.31
2019-05-18T15:02:21.786Z,38.57
2019-05-18T15:04:57.119Z,39.06
2019-05-18T15:07:29.242Z,39.03
2019-05-18T15:10:03.399Z,39.04
2019-05-18T15:12:35.576Z,39.39
2019-05-18T15:15:09.356Z,38.78
2019-05-18T15:17:41.435Z,39.57
2019-05-18T15:20:14.341Z,38.85
2019-05-18T15:22:46.439Z,38.45
2019-05-18T15:25:20.523Z,39.16
2019-05-18T15:27:52.456Z,37.58
2019-05-18T15:30:40.127Z,38.01
2019-05-18T15:33:12.452Z,37.90
2019-05-18T15:35:44.526Z,38.05
2019-05-18T15:38:16.604Z,38.87
2019-05-18T15:40:48.632Z,38.69
2019-05-18T15:43:24.787Z,39.87
2019-05-18T15:45:58.018Z,38.54
2019-05-18T15:48:30.113Z,38.78
2019-05-18T15:51:03.328Z,39.03
2019-05-18T15:53:35.380Z,38.23
2019-05-18T15:56:07.341Z,38.66
2019-05-18T15:58:39.364Z,37.98
2019-05-18T16:01:11.978Z,37.40
2019-05-18T16:03:44.315Z,37.80
2019-05-18T16:06:16.342Z,38.21
2019-05-18T16:08:51.119Z,38.54
2019-05-18T16:11:23.222Z,38.31
2019-05-18T16:13:55.397Z,38.45
2019-05-18T16:16:27.433Z,38.76
2019-05-18T16:18:59.600Z,39.65
2019-05-18T16:21:31.658Z,38.68
2019-05-18T16:24:03.989Z,38.75
2019-05-18T16:26:36.004Z,38.86
2019-05-18T16:29:08.022Z,38.68
2019-05-18T16:31:42.324Z,39.29
2019-05-18T16:34:14.446Z,39.16
2019-05-18T16:36:46.557Z,38.86
2019-05-18T16:39:18.570Z,39.28
2019-05-18T16:41:50.636Z,39.43
2019-05-18T16:44:24.545Z,39.37
2019-05-18T16:46:56.539Z,40.22
2019-05-18T16:49:29.189Z,39.52
2019-05-18T16:52:03.509Z,40.27
2019-05-18T16:54:35.552Z,40.42
2019-05-18T16:57:07.722Z,41.44
2019-05-18T16:59:39.818Z,40.83
2019-05-18T17:02:12.524Z,41.64
2019-05-18T17:04:44.999Z,41.90
2019-05-18T17:07:17.281Z,41.50
2019-05-18T17:09:49.495Z,41.51
2019-05-18T17:12:21.598Z,40.65
2019-05-18T17:14:54.629Z,39.89
2019-05-18T17:17:28.009Z,40.38
2019-05-18T17:20:00.717Z,40.50
2019-05-18T17:22:41.039Z,42.88
2019-05-18T17:25:13.961Z,43.34
2019-05-18T17:27:46.238Z,43.50
2019-05-18T17:30:18.667Z,43.61
2019-05-18T17:32:50.948Z,43.57
2019-05-18T17:35:23.034Z,43.56
2019-05-18T17:37:55.211Z,43.69
2019-05-18T17:40:27.697Z,44.54
2019-05-18T17:42:59.960Z,44.44
2019-05-18T17:45:32.352Z,44.76
2019-05-18T17:48:06.139Z,44.68
2019-05-18T17:50:38.470Z,43.71
2019-05-18T17:53:13.355Z,43.20
2019-05-18T17:55:46.483Z,43.70
2019-05-18T17:58:19.235Z,44.04
2019-05-18T18:00:51.939Z,44.93
2019-05-18T18:03:23.940Z,44.48
2019-05-18T18:05:56.588Z,45.19
2019-05-18T18:08:28.893Z,45.62
2019-05-18T18:11:04.434Z,45.98
2019-05-18T18:13:36.491Z,46.40
2019-05-18T18:16:10.229Z,46.49
2019-05-18T18:18:44.537Z,47.15
2019-05-18T18:21:16.673Z,47.53
2019-05-18T18:23:54.785Z,47.84
2019-05-18T18:26:24.692Z,48.67
2019-05-18T18:28:56.859Z,48.92
2019-05-18T18:31:28.983Z,49.39
2019-05-18T18:34:02.019Z,50.06
2019-05-18T18:36:34.362Z,50.42
2019-05-18T18:39:08.570Z,50.57
2019-05-18T18:41:43.022Z,50.92
2019-05-18T18:44:17.381Z,51.08
2019-05-18T18:46:50.001Z,51.41
2019-05-18T18:49:24.655Z,51.40
2019-05-18T18:52:01.533Z,51.92
2019-05-18T18:58:25.111Z,51.71
2019-05-18T19:00:59.065Z,51.95
2019-05-18T19:03:31.495Z,52.18
2019-05-18T19:06:04.012Z,52.36
2019-05-18T19:08:36.311Z,53.29
2019-05-18T19:11:08.652Z,53.46
2019-05-18T19:13:41.100Z,53.94
2019-05-18T19:16:13.702Z,54.18
2019-05-18T19:18:46.042Z,54.54
2019-05-18T19:21:18.665Z,54.25
2019-05-18T19:23:50.797Z,55.49
2019-05-18T19:26:22.979Z,55.43
2019-05-18T19:28:55.178Z,56.04
2019-05-18T19:31:28.859Z,56.62
2019-05-18T19:34:06.656Z,57.06
2019-05-18T19:36:38.796Z,57.24
2019-05-18T19:39:11.339Z,57.79
2019-05-18T19:41:47.757Z,58.05
2019-05-18T19:44:23.920Z,58.84
2019-05-18T19:46:55.633Z,59.09
2019-05-18T19:49:27.669Z,59.99
2019-05-18T19:51:59.961Z,60.82
2019-05-18T19:54:32.938Z,61.31
2019-05-18T19:57:08.183Z,61.83
2019-05-18T19:59:44.849Z,62.18
2019-05-18T20:02:18.438Z,62.56
2019-05-18T20:05:06.474Z,63.01
2019-05-18T20:07:50.100Z,63.48
2019-05-18T20:10:57.847Z,64.13
2019-05-18T20:13:29.377Z,64.81
2019-05-18T20:16:02.774Z,65.40
2019-05-18T20:18:34.799Z,65.72
2019-05-18T20:21:06.863Z,65.86
2019-05-18T20:23:40.291Z,66.33
2019-05-18T20:26:14.824Z,66.83
2019-05-18T20:28:46.820Z,67.18
2019-05-18T20:31:26.797Z,67.70
2019-05-18T20:36:07.514Z,68.12
2019-05-18T20:37:23.666Z,68.12
2019-05-18T20:43:46.663Z,69.23
2019-05-18T20:47:17.231Z,69.66
2019-05-18T20:49:52.904Z,69.89
2019-05-18T20:52:48.704Z,70.10
2019-05-18T20:55:23.955Z,70.17
2019-05-18T20:57:56.065Z,70.70
2019-05-18T21:00:28.314Z,71.29
2019-05-18T21:03:02.363Z,71.52
2019-05-18T21:05:38.328Z,72.11
2019-05-18T21:08:10.497Z,72.47
2019-05-18T21:10:45.326Z,72.58
2019-05-18T21:13:17.473Z,73.20
2019-05-18T21:15:52.822Z,72.82
2019-05-18T21:18:24.913Z,73.40
2019-05-18T21:20:59.501Z,73.78
2019-05-18T21:23:31.587Z,73.59
2019-05-18T21:26:04.431Z,73.96
2019-05-18T21:28:54.765Z,74.57
2019-05-18T21:31:16.563Z,74.43
2019-05-18T21:33:48.717Z,73.83
2019-05-18T21:36:20.744Z,73.92
2019-05-18T21:38:54.913Z,73.80
2019-05-18T21:41:31.663Z,73.93
2019-05-18T21:44:03.796Z,74.01
2019-05-18T21:46:38.974Z,73.45
2019-05-18T21:49:33.489Z,73.86
2019-05-18T21:52:07.604Z,74.08
2019-05-18T21:54:39.661Z,74.91
2019-05-18T21:57:11.829Z,75.61
2019-05-18T21:59:44.269Z,75.70
2019-05-18T22:02:16.457Z,76.34
2019-05-18T22:04:48.486Z,76.60
2019-05-18T22:07:20.456Z,76.87
2019-05-18T22:09:54.189Z,77.45
2019-05-18T22:12:26.218Z,77.49
2019-05-18T22:14:58.288Z,77.72
2019-05-18T22:17:30.745Z,77.72
2019-05-18T22:20:03.862Z,77.92
2019-05-18T22:22:37.518Z,78.03
2019-05-18T22:25:09.785Z,78.36
2019-05-18T22:27:44.941Z,78.20
2019-05-18T22:30:20.105Z,78.17
2019-05-18T22:32:52.957Z,78.06
2019-05-18T22:35:25.221Z,78.43
2019-05-18T22:37:57.345Z,78.89
2019-05-18T22:40:29.475Z,78.99
2019-05-18T22:43:02.255Z,79.49
2019-05-18T22:45:34.317Z,79.91
2019-05-18T22:48:06.491Z,80.30
2019-05-18T22:50:38.527Z,80.76
2019-05-18T22:53:10.598Z,81.22
2019-05-18T22:55:42.540Z,81.73
2019-05-18T22:58:14.515Z,82.21
2019-05-18T23:00:46.477Z,82.54
2019-05-18T23:03:18.633Z,82.88
2019-05-18T23:05:50.632Z,83.49
2019-05-18T23:08:22.643Z,83.84
2019-05-18T23:10:54.830Z,84.14
2019-05-18T23:13:29.885Z,84.51
2019-05-18T23:16:04.426Z,85.07
2019-05-18T23:18:39.929Z,85.23
2019-05-18T23:21:12.620Z,85.52
2019-05-18T23:23:44.627Z,85.90
2019-05-18T23:26:16.607Z,86.29
2019-05-18T23:28:48.586Z,86.60
2019-05-18T23:31:21.111Z,87.31
2019-05-18T23:33:53.231Z,87.62
2019-05-18T23:36:25.655Z,88.55
2019-05-18T23:38:57.940Z,89.13
2019-05-18T23:41:31.590Z,90.26
2019-05-18T23:44:03.619Z,91.28
2019-05-18T23:46:36.227Z,91.83
2019-05-18T23:49:10.718Z,91.81
2019-05-18T23:51:43.622Z,91.89
2019-05-18T23:54:18.843Z,92.45
2019-05-18T23:56:52.529Z,93.01
2019-05-18T23:59:26.140Z,93.60
